createdAt,value
2023-01-22T00:00:13.019Z,23.70
2023-01-22T00:02:40.953Z,23.20
2023-01-22T00:05:08.886Z,26.92
2023-01-22T00:07:36.446Z,24.25
2023-01-22T00:10:04.100Z,25.15
2023-01-22T00:12:31.700Z,22.63
2023-01-22T00:14:59.242Z,26.00
2023-01-22T00:17:26.835Z,24.35
2023-01-22T00:19:54.427Z,22.25
2023-01-22T00:22:22.646Z,23.65
2023-01-22T00:24:50.182Z,24.77
2023-01-22T00:27:17.830Z,24.20
2023-01-22T00:29:45.371Z,24.33
2023-01-22T00:32:12.980Z,23.73
2023-01-22T00:34:41.972Z,24.15
2023-01-22T00:37:09.516Z,25.70
2023-01-22T00:39:37.060Z,22.33
2023-01-22T00:42:04.693Z,22.42
2023-01-22T00:44:32.370Z,24.38
2023-01-22T00:46:59.916Z,24.20
2023-01-22T00:49:27.481Z,21.95
2023-01-22T00:51:55.061Z,21.00
2023-01-22T00:54:22.667Z,22.15
2023-01-22T00:56:50.206Z,24.67
2023-01-22T00:59:17.860Z,25.48
2023-01-22T01:01:45.492Z,27.35
2023-01-22T01:04:14.398Z,21.75
2023-01-22T01:06:42.113Z,26.05
2023-01-22T01:09:13.743Z,22.88
2023-01-22T01:11:41.334Z,24.25
2023-01-22T01:14:09.942Z,24.08
2023-01-22T01:16:37.527Z,21.75
2023-01-22T01:19:07.373Z,28.38
2023-01-22T01:21:35.070Z,23.85
2023-01-22T01:24:02.642Z,24.05
2023-01-22T01:26:30.224Z,23.08
2023-01-22T01:28:57.772Z,22.65
2023-01-22T01:31:28.604Z,27.73
2023-01-22T01:33:57.980Z,26.00
2023-01-22T01:36:48.644Z,23.70
2023-01-22T01:39:13.630Z,23.67
2023-01-22T01:41:41.204Z,23.88
2023-01-22T01:44:10.185Z,27.27
2023-01-22T01:46:40.776Z,23.48
2023-01-22T01:49:14.800Z,25.42
2023-01-22T01:51:42.351Z,24.85
2023-01-22T01:54:11.524Z,26.35
2023-01-22T01:56:46.270Z,25.95
2023-01-22T01:59:14.994Z,26.55
2023-01-22T02:01:42.809Z,25.38
2023-01-22T02:04:10.459Z,24.20
2023-01-22T02:06:38.288Z,25.10
2023-01-22T02:09:05.891Z,24.20
2023-01-22T02:11:36.032Z,25.13
2023-01-22T02:14:09.030Z,26.98
2023-01-22T02:16:36.976Z,23.15
2023-01-22T02:19:04.652Z,24.95
2023-01-22T02:21:38.106Z,25.90
2023-01-22T02:24:08.250Z,25.63
2023-01-22T02:26:36.204Z,26.33
2023-01-22T02:29:04.375Z,27.02
2023-01-22T02:31:32.320Z,27.95
2023-01-22T02:34:01.929Z,25.90
2023-01-22T02:36:31.467Z,27.02
2023-01-22T02:38:59.064Z,26.33
2023-01-22T02:41:26.843Z,26.52
2023-01-22T02:43:54.465Z,28.05
2023-01-22T02:46:25.898Z,27.45
2023-01-22T02:48:53.639Z,26.98
2023-01-22T02:51:21.776Z,27.60
2023-01-22T02:53:50.430Z,28.73
2023-01-22T02:56:18.851Z,26.52
2023-01-22T02:58:46.411Z,27.13
2023-01-22T03:01:22.101Z,25.95
2023-01-22T03:03:53.778Z,30.27
2023-01-22T03:06:22.236Z,26.27
2023-01-22T03:08:50.380Z,28.63
2023-01-22T03:11:17.917Z,27.05
2023-01-22T03:14:04.628Z,30.13
2023-01-22T03:16:51.671Z,26.70
2023-01-22T03:19:38.724Z,30.38
2023-01-22T03:22:12.461Z,27.50
2023-01-22T03:24:40.069Z,26.52
2023-01-22T03:27:07.681Z,24.67
2023-01-22T03:29:38.309Z,26.95
2023-01-22T03:32:07.787Z,27.67
2023-01-22T03:34:37.704Z,26.45
2023-01-22T03:37:07.459Z,26.80
2023-01-22T03:39:37.591Z,25.67
2023-01-22T03:42:05.335Z,29.10
2023-01-22T03:44:32.926Z,25.48
2023-01-22T03:47:00.527Z,27.83
2023-01-22T03:49:28.782Z,26.95
2023-01-22T03:51:57.189Z,25.80
2023-01-22T03:54:26.442Z,29.00
2023-01-22T03:56:56.740Z,28.08
2023-01-22T03:59:31.699Z,24.90
2023-01-22T04:01:59.370Z,24.42
2023-01-22T04:04:27.051Z,25.90
2023-01-22T04:06:54.700Z,29.40
2023-01-22T04:09:23.242Z,27.35
2023-01-22T04:11:51.193Z,25.67
2023-01-22T04:14:19.432Z,26.65
2023-01-22T04:16:56.018Z,30.60
2023-01-22T04:19:44.869Z,27.02
2023-01-22T04:22:44.485Z,25.85
2023-01-22T04:25:13.690Z,25.45
2023-01-22T04:27:41.309Z,26.42
2023-01-22T04:30:09.222Z,29.08
2023-01-22T04:32:37.135Z,26.20
2023-01-22T04:35:37.728Z,23.65
2023-01-22T04:38:05.828Z,26.80
2023-01-22T04:40:34.523Z,25.45
2023-01-22T04:43:06.154Z,26.90
2023-01-22T04:45:33.984Z,26.00
2023-01-22T04:48:01.684Z,27.23
2023-01-22T04:50:32.643Z,27.20
2023-01-22T04:53:00.939Z,27.95
2023-01-22T04:55:29.452Z,28.67
2023-01-22T04:58:02.451Z,27.13
2023-01-22T05:00:31.132Z,30.08
2023-01-22T05:03:01.804Z,25.27
2023-01-22T05:05:30.841Z,25.23
2023-01-22T05:07:58.852Z,27.08
2023-01-22T05:10:26.951Z,28.35
2023-01-22T05:12:54.920Z,25.05
2023-01-22T05:15:24.685Z,27.88
2023-01-22T05:17:55.687Z,30.33
2023-01-22T05:20:23.575Z,26.27
2023-01-22T05:22:51.148Z,26.10
2023-01-22T05:25:23.063Z,27.00
2023-01-22T05:27:50.702Z,26.85
2023-01-22T05:30:30.934Z,25.25
2023-01-22T05:33:01.695Z,24.33
2023-01-22T05:35:29.989Z,26.75
2023-01-22T05:37:58.108Z,26.48
2023-01-22T05:40:25.730Z,26.13
2023-01-22T05:42:54.041Z,28.42
2023-01-22T05:45:22.355Z,25.98
2023-01-22T05:48:12.992Z,26.48
2023-01-22T05:50:55.558Z,23.65
2023-01-22T05:53:23.129Z,25.35
2023-01-22T05:55:50.711Z,26.05
2023-01-22T05:58:18.329Z,25.38
2023-01-22T06:00:48.291Z,26.55
2023-01-22T06:03:17.490Z,24.58
2023-01-22T06:06:03.908Z,27.13
2023-01-22T06:08:34.130Z,27.13
2023-01-22T06:11:08.028Z,25.10
2023-01-22T06:13:35.691Z,25.63
2023-01-22T06:16:10.997Z,24.75
2023-01-22T06:18:59.555Z,24.77
2023-01-22T06:21:30.928Z,26.15
2023-01-22T06:23:58.787Z,24.08
2023-01-22T06:26:26.463Z,26.63
2023-01-22T06:28:55.132Z,26.92
2023-01-22T06:31:23.187Z,27.33
2023-01-22T06:33:50.903Z,24.55
2023-01-22T06:36:18.553Z,27.38
2023-01-22T06:38:46.156Z,27.75
2023-01-22T06:41:18.733Z,25.23
2023-01-22T06:43:48.741Z,23.83
2023-01-22T06:46:16.448Z,21.17
2023-01-22T06:49:16.352Z,21.63
2023-01-22T06:51:44.583Z,21.45
2023-01-22T06:54:13.633Z,18.52
2023-01-22T06:56:41.291Z,23.75
2023-01-22T06:59:08.915Z,19.88
2023-01-22T07:01:36.592Z,22.55
2023-01-22T07:04:04.305Z,22.08
2023-01-22T07:06:31.902Z,21.80
2023-01-22T07:08:59.482Z,24.70
2023-01-22T07:11:27.064Z,24.92
2023-01-22T07:13:54.647Z,26.58
2023-01-22T07:16:22.282Z,23.75
2023-01-22T07:18:49.867Z,23.95
2023-01-22T07:21:17.653Z,22.33
2023-01-22T07:23:45.204Z,24.23
2023-01-22T07:26:12.816Z,23.23
2023-01-22T07:28:40.368Z,23.48
2023-01-22T07:31:11.537Z,26.20
2023-01-22T07:33:39.243Z,25.67
2023-01-22T07:36:07.098Z,23.23
2023-01-22T07:38:34.631Z,20.98
2023-01-22T07:41:14.151Z,20.88
2023-01-22T07:43:49.270Z,21.92
2023-01-22T07:46:16.901Z,21.67
2023-01-22T07:48:45.869Z,23.25
2023-01-22T07:51:13.600Z,23.10
2023-01-22T07:53:42.639Z,23.48
2023-01-22T07:56:10.280Z,19.77
2023-01-22T07:58:39.189Z,22.05
2023-01-22T08:01:07.577Z,23.05
2023-01-22T08:03:37.674Z,21.48
2023-01-22T08:06:11.999Z,23.33
2023-01-22T08:08:39.636Z,23.83
2023-01-22T08:11:07.171Z,23.52
2023-01-22T08:13:34.688Z,23.30
2023-01-22T08:16:02.327Z,26.17
2023-01-22T08:18:29.908Z,23.10
2023-01-22T08:21:00.598Z,24.63
2023-01-22T08:23:28.360Z,24.55
2023-01-22T08:25:59.327Z,27.00
2023-01-22T08:28:27.176Z,28.67
2023-01-22T08:31:01.955Z,27.92
2023-01-22T08:33:29.905Z,26.88
2023-01-22T08:35:57.494Z,25.08
2023-01-22T08:38:26.033Z,25.00
2023-01-22T08:40:53.929Z,23.83
2023-01-22T08:43:21.642Z,26.63
2023-01-22T08:45:49.869Z,24.42
2023-01-22T08:48:17.772Z,23.60
2023-01-22T08:50:45.377Z,23.90
2023-01-22T08:53:12.915Z,21.30
2023-01-22T08:55:40.501Z,23.40
2023-01-22T08:58:08.102Z,23.83
2023-01-22T09:00:35.708Z,41.65
2023-01-22T09:03:03.274Z,25.98
2023-01-22T09:05:30.807Z,23.52
2023-01-22T09:07:58.348Z,23.40
2023-01-22T09:10:25.927Z,22.08
2023-01-22T09:12:53.515Z,21.63
2023-01-22T09:15:21.077Z,23.33
2023-01-22T09:17:48.597Z,23.58
2023-01-22T09:20:16.772Z,25.00
2023-01-22T09:22:48.349Z,19.02
2023-01-22T09:25:16.555Z,19.98
2023-01-22T09:27:44.116Z,17.95
2023-01-22T09:30:14.333Z,20.42
2023-01-22T09:32:42.038Z,23.98
2023-01-22T09:35:09.799Z,28.55
2023-01-22T09:37:37.338Z,27.42
2023-01-22T09:40:05.126Z,23.30
2023-01-22T09:42:37.484Z,24.80
2023-01-22T09:45:07.787Z,24.92
2023-01-22T09:47:37.669Z,25.90
2023-01-22T09:50:07.142Z,23.55
2023-01-22T09:52:37.851Z,27.02
2023-01-22T09:55:10.065Z,25.48
2023-01-22T09:57:45.851Z,22.92
2023-01-22T10:00:19.920Z,22.17
2023-01-22T10:02:49.841Z,25.27
2023-01-22T10:05:24.447Z,23.80
2023-01-22T10:07:53.507Z,25.65
2023-01-22T10:10:25.787Z,24.25
2023-01-22T10:13:16.339Z,22.70
2023-01-22T10:15:44.114Z,20.42
2023-01-22T10:18:21.026Z,20.70
2023-01-22T10:20:49.133Z,21.88
2023-01-22T10:23:21.159Z,20.60
2023-01-22T10:25:48.856Z,22.90
2023-01-22T10:28:16.513Z,21.70
2023-01-22T10:30:48.181Z,21.20
2023-01-22T10:35:44.191Z,19.85
2023-01-22T10:38:22.398Z,20.17
2023-01-22T10:40:54.006Z,18.70
2023-01-22T10:43:21.677Z,23.60
2023-01-22T10:45:56.400Z,22.30
2023-01-22T10:48:24.278Z,21.35
2023-01-22T10:51:12.473Z,23.25
2023-01-22T10:53:45.593Z,23.83
2023-01-22T10:56:14.168Z,24.08
2023-01-22T10:58:47.091Z,19.83
2023-01-22T11:01:43.915Z,23.00
2023-01-22T11:04:14.345Z,24.98
2023-01-22T11:06:44.462Z,23.60
2023-01-22T11:09:18.396Z,18.73
2023-01-22T11:11:49.252Z,21.08
2023-01-22T11:14:23.128Z,19.58
2023-01-22T11:16:52.562Z,16.73
2023-01-22T11:19:36.632Z,16.08
2023-01-22T11:22:07.010Z,12.90
2023-01-22T11:24:41.035Z,14.65
2023-01-22T11:27:23.745Z,14.10
2023-01-22T11:30:00.189Z,15.35
2023-01-22T11:32:30.670Z,9.75
2023-01-22T11:35:16.817Z,12.38
2023-01-22T11:37:45.588Z,11.55
2023-01-22T11:40:27.791Z,13.23
2023-01-22T11:43:01.407Z,9.70
2023-01-22T11:45:32.943Z,12.63
2023-01-22T11:48:20.775Z,10.65
2023-01-22T11:50:52.930Z,13.60
2023-01-22T11:53:41.096Z,12.90
2023-01-22T11:56:20.931Z,12.88
2023-01-22T11:58:48.498Z,12.48
2023-01-22T12:01:25.609Z,13.95
2023-01-22T12:04:05.390Z,14.15
2023-01-22T12:06:39.165Z,12.05
2023-01-22T12:09:14.105Z,12.98
2023-01-22T12:11:48.866Z,10.80
2023-01-22T12:14:25.557Z,14.10
2023-01-22T12:17:02.022Z,17.17
2023-01-22T12:19:29.635Z,12.18
2023-01-22T12:22:04.134Z,13.30
2023-01-22T12:24:38.108Z,16.75
2023-01-22T12:27:27.684Z,13.55
2023-01-22T12:30:18.506Z,12.63
2023-01-22T12:32:48.931Z,13.50
2023-01-22T12:35:20.651Z,13.55
2023-01-22T12:40:48.188Z,11.20
2023-01-22T12:43:17.629Z,12.73
2023-01-22T12:45:46.444Z,12.57
2023-01-22T12:48:23.514Z,14.73
2023-01-22T12:50:52.685Z,13.18
2023-01-22T12:53:30.787Z,13.57
2023-01-22T12:56:06.118Z,10.18
2023-01-22T12:58:35.941Z,11.93
2023-01-22T13:01:06.752Z,11.32
2023-01-22T13:03:35.049Z,9.38
2023-01-22T13:06:04.242Z,12.50
2023-01-22T13:08:38.102Z,12.00
2023-01-22T13:11:07.268Z,11.63
2023-01-22T13:13:39.912Z,10.82
2023-01-22T13:16:17.539Z,11.88
2023-01-22T13:18:47.050Z,11.35
2023-01-22T13:21:15.815Z,12.88
2023-01-22T13:23:47.502Z,12.95
2023-01-22T13:28:48.098Z,11.65
2023-01-22T13:31:17.054Z,11.38
2023-01-22T13:33:55.050Z,11.63
2023-01-22T13:36:22.852Z,11.07
2023-01-22T13:38:54.854Z,10.20
2023-01-22T13:41:30.120Z,14.30
2023-01-22T13:43:58.060Z,11.90
2023-01-22T13:46:27.137Z,11.52
2023-01-22T13:49:13.556Z,11.85
2023-01-22T13:51:41.550Z,11.68
2023-01-22T13:54:12.496Z,11.65
2023-01-22T13:56:41.209Z,11.27
2023-01-22T13:59:17.751Z,11.38
2023-01-22T14:01:45.580Z,12.60
2023-01-22T14:04:25.914Z,11.20
2023-01-22T14:06:53.517Z,12.95
2023-01-22T14:09:32.074Z,12.18
2023-01-22T14:12:00.416Z,12.43
2023-01-22T14:14:28.160Z,13.23
2023-01-22T14:16:55.688Z,15.82
2023-01-22T14:19:23.295Z,15.80
2023-01-22T14:21:50.840Z,14.02
2023-01-22T14:24:18.413Z,15.10
2023-01-22T14:26:45.971Z,16.60
2023-01-22T14:29:14.499Z,14.07
2023-01-22T14:31:42.162Z,15.07
2023-01-22T14:34:12.377Z,13.95
2023-01-22T14:36:39.962Z,15.95
2023-01-22T14:39:07.509Z,14.30
2023-01-22T14:41:35.083Z,15.43
2023-01-22T14:44:04.071Z,14.95
2023-01-22T14:46:31.622Z,16.75
2023-01-22T14:49:01.695Z,14.48
2023-01-22T14:51:29.252Z,16.00
2023-01-22T14:53:58.803Z,16.92
2023-01-22T14:56:26.480Z,13.93
2023-01-22T14:58:54.046Z,14.50
2023-01-22T15:01:22.747Z,15.27
2023-01-22T15:03:50.444Z,16.67
2023-01-22T15:06:18.002Z,16.83
2023-01-22T15:08:46.799Z,16.27
2023-01-22T15:11:14.410Z,14.98
2023-01-22T15:13:42.088Z,15.68
2023-01-22T15:16:10.999Z,16.77
2023-01-22T15:18:39.409Z,16.23
2023-01-22T15:21:07.072Z,14.80
2023-01-22T15:23:35.485Z,17.85
2023-01-22T15:26:05.443Z,18.20
2023-01-22T15:28:32.980Z,16.42
2023-01-22T15:31:07.636Z,15.45
2023-01-22T15:33:35.961Z,18.05
2023-01-22T15:36:04.517Z,16.77
2023-01-22T15:38:32.051Z,17.58
2023-01-22T15:41:03.533Z,15.10
2023-01-22T15:43:31.081Z,20.98
2023-01-22T15:45:58.673Z,15.73
2023-01-22T15:48:26.291Z,32.38
2023-01-22T15:50:53.957Z,15.93
2023-01-22T15:53:21.492Z,17.20
2023-01-22T15:55:49.897Z,15.77
2023-01-22T15:58:17.456Z,19.05
2023-01-22T16:00:45.016Z,16.90
2023-01-22T16:03:13.381Z,17.27
2023-01-22T16:05:40.907Z,17.60
2023-01-22T16:08:08.443Z,16.27
2023-01-22T16:10:37.036Z,17.55
2023-01-22T16:13:04.675Z,14.68
2023-01-22T16:15:32.502Z,16.65
2023-01-22T16:18:00.968Z,17.20
2023-01-22T16:20:28.768Z,19.98
2023-01-22T16:22:56.264Z,17.63
2023-01-22T16:25:23.848Z,16.95
2023-01-22T16:27:51.350Z,18.42
2023-01-22T16:30:19.339Z,18.10
2023-01-22T16:32:47.078Z,20.48
2023-01-22T16:35:14.674Z,20.17
2023-01-22T16:37:44.294Z,17.38
2023-01-22T16:40:12.649Z,19.58
2023-01-22T16:42:40.283Z,19.80
2023-01-22T16:45:08.065Z,19.55
2023-01-22T16:47:35.575Z,19.60
2023-01-22T16:50:03.142Z,19.00
2023-01-22T16:52:31.922Z,17.42
2023-01-22T16:54:59.476Z,17.75
2023-01-22T16:57:27.098Z,17.55
2023-01-22T16:59:54.699Z,17.75
2023-01-22T17:02:22.311Z,19.70
2023-01-22T17:04:49.915Z,18.92
2023-01-22T17:07:32.263Z,19.83
2023-01-22T17:10:01.182Z,19.35
2023-01-22T17:12:28.783Z,19.63
2023-01-22T17:14:56.349Z,20.80
2023-01-22T17:17:25.243Z,18.60
2023-01-22T17:19:52.791Z,20.08
2023-01-22T17:22:20.349Z,21.45
2023-01-22T17:24:48.042Z,21.45
2023-01-22T17:27:18.415Z,20.40
2023-01-22T17:29:46.008Z,20.52
2023-01-22T17:32:13.594Z,19.50
2023-01-22T17:34:41.959Z,20.25
2023-01-22T17:37:11.046Z,21.67
2023-01-22T17:39:39.358Z,25.60
2023-01-22T17:42:06.917Z,21.33
2023-01-22T17:44:34.832Z,22.13
2023-01-22T17:47:03.346Z,21.00
2023-01-22T17:49:32.445Z,22.80
2023-01-22T17:51:59.969Z,21.92
2023-01-22T17:54:27.488Z,23.33
2023-01-22T17:56:55.318Z,21.90
2023-01-22T17:59:24.163Z,23.95
2023-01-22T18:01:51.762Z,24.23
2023-01-22T18:04:19.445Z,21.90
2023-01-22T18:06:47.180Z,21.00
2023-01-22T18:09:14.827Z,24.10
2023-01-22T18:11:42.922Z,26.10
2023-01-22T18:14:17.279Z,24.73
2023-01-22T18:16:45.778Z,26.83
2023-01-22T18:19:13.464Z,26.08
2023-01-22T18:21:41.371Z,26.75
2023-01-22T18:24:09.762Z,25.90
2023-01-22T18:26:37.507Z,27.70
2023-01-22T18:29:05.449Z,27.55
2023-01-22T18:31:33.176Z,25.90
2023-01-22T18:34:02.297Z,26.73
2023-01-22T18:36:31.028Z,25.60
2023-01-22T18:39:02.327Z,27.25
2023-01-22T18:41:30.691Z,30.38
2023-01-22T18:43:59.664Z,28.42
2023-01-22T18:46:28.753Z,28.65
2023-01-22T18:48:57.651Z,28.90
2023-01-22T18:51:25.785Z,29.65
2023-01-22T18:53:53.616Z,29.10
2023-01-22T18:56:21.234Z,27.05
2023-01-22T18:58:48.779Z,31.40
2023-01-22T19:01:17.878Z,32.72
2023-01-22T19:03:50.004Z,29.15
2023-01-22T19:06:19.088Z,30.77
2023-01-22T19:08:49.744Z,29.73
2023-01-22T19:11:17.478Z,33.85
2023-01-22T19:13:45.238Z,28.40
2023-01-22T19:16:14.451Z,29.77
2023-01-22T19:18:42.473Z,28.85
2023-01-22T19:21:14.633Z,30.42
2023-01-22T19:23:44.594Z,28.00
2023-01-22T19:26:15.033Z,28.13
2023-01-22T19:28:42.620Z,28.25
2023-01-22T19:31:18.159Z,29.88
2023-01-22T19:33:46.495Z,28.95
2023-01-22T19:36:14.257Z,28.58
2023-01-22T19:38:41.838Z,29.23
2023-01-22T19:41:09.648Z,28.75
2023-01-22T19:43:37.387Z,29.40
2023-01-22T19:46:07.330Z,29.42
2023-01-22T19:48:35.541Z,30.40
2023-01-22T19:51:04.425Z,29.42
2023-01-22T19:53:32.248Z,27.95
2023-01-22T19:55:59.866Z,27.20
2023-01-22T19:58:28.257Z,31.45
2023-01-22T20:00:58.025Z,28.45
2023-01-22T20:03:27.033Z,30.17
2023-01-22T20:05:54.636Z,30.10
2023-01-22T20:08:22.277Z,31.85
2023-01-22T20:10:58.086Z,32.47
2023-01-22T20:13:25.674Z,34.05
2023-01-22T20:15:53.943Z,33.08
2023-01-22T20:18:21.569Z,30.65
2023-01-22T20:20:53.755Z,32.20
2023-01-22T20:23:21.632Z,30.80
2023-01-22T20:25:50.079Z,30.35
2023-01-22T20:28:18.547Z,32.47
2023-01-22T20:30:46.489Z,29.98
2023-01-22T20:33:14.073Z,33.20
2023-01-22T20:35:42.483Z,31.55
2023-01-22T20:38:10.497Z,31.63
2023-01-22T20:40:39.059Z,32.88
2023-01-22T20:43:06.663Z,37.35
2023-01-22T20:45:34.257Z,35.92
2023-01-22T20:48:02.415Z,31.20
2023-01-22T20:50:29.965Z,32.17
2023-01-22T20:52:57.551Z,30.85
2023-01-22T20:55:26.173Z,31.88
2023-01-22T20:57:53.746Z,31.38
2023-01-22T21:00:21.406Z,35.00
2023-01-22T21:02:50.618Z,32.53
2023-01-22T21:05:18.541Z,33.55
2023-01-22T21:07:46.508Z,35.15
2023-01-22T21:10:14.534Z,34.78
2023-01-22T21:12:42.592Z,31.30
2023-01-22T21:15:10.424Z,34.25
2023-01-22T21:17:38.015Z,35.58
2023-01-22T21:20:06.172Z,37.13
2023-01-22T21:22:33.713Z,37.80
2023-01-22T21:25:01.284Z,39.78
2023-01-22T21:27:29.008Z,35.47
2023-01-22T21:29:57.793Z,40.10
2023-01-22T21:32:25.438Z,39.15
2023-01-22T21:34:52.996Z,34.15
2023-01-22T21:37:20.542Z,36.80
2023-01-22T21:39:48.145Z,32.78
2023-01-22T21:42:34.305Z,35.78
2023-01-22T21:45:20.664Z,38.63
2023-01-22T21:47:48.204Z,37.58
2023-01-22T21:50:15.914Z,34.75
2023-01-22T21:52:45.241Z,32.67
2023-01-22T21:55:14.815Z,37.50
2023-01-22T21:57:44.060Z,33.53
2023-01-22T22:00:11.950Z,36.80
2023-01-22T22:02:39.511Z,33.47
2023-01-22T22:05:07.328Z,33.13
2023-01-22T22:07:34.892Z,30.80
2023-01-22T22:10:02.574Z,33.47
2023-01-22T22:12:31.497Z,32.25
2023-01-22T22:14:59.076Z,32.60
2023-01-22T22:17:26.614Z,35.25
2023-01-22T22:19:54.151Z,35.30
2023-01-22T22:22:21.707Z,31.77
2023-01-22T22:24:49.282Z,32.90
2023-01-22T22:27:16.828Z,34.75
2023-01-22T22:29:44.421Z,33.42
2023-01-22T22:32:12.008Z,30.25
2023-01-22T22:34:39.618Z,32.50
2023-01-22T22:37:07.204Z,37.50
2023-01-22T22:39:34.814Z,32.10
2023-01-22T22:42:02.389Z,33.80
2023-01-22T22:44:30.239Z,33.28
2023-01-22T22:46:57.776Z,34.72
2023-01-22T22:49:25.353Z,35.92
2023-01-22T22:51:52.907Z,38.05
2023-01-22T22:54:20.631Z,39.95
2023-01-22T22:56:49.248Z,37.00
2023-01-22T22:59:19.154Z,38.00
2023-01-22T23:01:47.006Z,34.05
2023-01-22T23:04:14.636Z,35.40
2023-01-22T23:06:43.870Z,35.25
2023-01-22T23:09:12.548Z,35.10
2023-01-22T23:11:40.183Z,33.75
2023-01-22T23:14:08.061Z,36.65
2023-01-22T23:16:37.295Z,36.13
2023-01-22T23:19:06.314Z,33.17
2023-01-22T23:21:36.237Z,33.55
2023-01-22T23:24:04.163Z,35.92
2023-01-22T23:26:31.789Z,31.95
2023-01-22T23:29:01.996Z,37.72
2023-01-22T23:31:31.244Z,34.08
2023-01-22T23:33:59.643Z,33.05
2023-01-22T23:36:27.337Z,36.20
2023-01-22T23:38:55.611Z,34.25
2023-01-22T23:41:23.819Z,35.10
2023-01-22T23:43:51.623Z,37.03
2023-01-22T23:46:26.144Z,33.40
2023-01-22T23:48:54.644Z,33.08
2023-01-22T23:51:22.333Z,35.10
2023-01-22T23:53:53.943Z,36.63
2023-01-22T23:58:49.330Z,34.10
